sensor_id;sensor_type;location;lat;lon;timestamp;temperature;humidity
40622;DHT22;26324;52.040;11.528;2023-04-16T00:03:20;10.10;90.50
40622;DHT22;26324;52.040;11.528;2023-04-16T00:05:47;10.00;90.60
40622;DHT22;26324;52.040;11.528;2023-04-16T00:08:15;10.00;90.70
40622;DHT22;26324;52.040;11.528;2023-04-16T00:10:42;10.00;90.70
40622;DHT22;26324;52.040;11.528;2023-04-16T00:13:09;10.10;90.80
40622;DHT22;26324;52.040;11.528;2023-04-16T00:15:37;10.10;90.50
40622;DHT22;26324;52.040;11.528;2023-04-16T00:18:04;10.10;90.40
40622;DHT22;26324;52.040;11.528;2023-04-16T00:20:31;10.10;90.40
40622;DHT22;26324;52.040;11.528;2023-04-16T00:22:59;10.10;90.40
40622;DHT22;26324;52.040;11.528;2023-04-16T00:25:26;10.10;90.30
40622;DHT22;26324;52.040;11.528;2023-04-16T00:27:53;10.00;90.20
40622;DHT22;26324;52.040;11.528;2023-04-16T00:30:21;10.00;90.50
40622;DHT22;26324;52.040;11.528;2023-04-16T00:32:49;10.00;90.50
40622;DHT22;26324;52.040;11.528;2023-04-16T00:35:16;10.00;90.40
40622;DHT22;26324;52.040;11.528;2023-04-16T00:37:43;10.00;90.30
40622;DHT22;26324;52.040;11.528;2023-04-16T00:40:11;10.00;90.30
40622;DHT22;26324;52.040;11.528;2023-04-16T00:42:38;10.00;90.20
40622;DHT22;26324;52.040;11.528;2023-04-16T00:45:06;10.00;90.30
40622;DHT22;26324;52.040;11.528;2023-04-16T00:47:33;10.00;90.30
40622;DHT22;26324;52.040;11.528;2023-04-16T00:50:02;10.00;90.30
40622;DHT22;26324;52.040;11.528;2023-04-16T00:52:30;10.00;90.10
40622;DHT22;26324;52.040;11.528;2023-04-16T00:54:58;10.00;90.20
40622;DHT22;26324;52.040;11.528;2023-04-16T00:57:25;10.00;90.30
40622;DHT22;26324;52.040;11.528;2023-04-16T00:59:54;9.90;90.10
40622;DHT22;26324;52.040;11.528;2023-04-16T01:02:22;9.90;90.30
40622;DHT22;26324;52.040;11.528;2023-04-16T01:04:50;9.80;90.30
40622;DHT22;26324;52.040;11.528;2023-04-16T01:07:17;9.70;90.40
40622;DHT22;26324;52.040;11.528;2023-04-16T01:09:45;9.80;90.40
40622;DHT22;26324;52.040;11.528;2023-04-16T01:12:12;9.80;90.20
40622;DHT22;26324;52.040;11.528;2023-04-16T01:14:39;9.90;90.10
40622;DHT22;26324;52.040;11.528;2023-04-16T01:17:07;9.80;89.90
40622;DHT22;26324;52.040;11.528;2023-04-16T01:19:34;9.80;89.90
40622;DHT22;26324;52.040;11.528;2023-04-16T01:22:04;9.80;89.80
40622;DHT22;26324;52.040;11.528;2023-04-16T01:24:32;9.80;89.70
40622;DHT22;26324;52.040;11.528;2023-04-16T01:27:00;9.80;89.60
40622;DHT22;26324;52.040;11.528;2023-04-16T01:29:27;9.70;89.60
40622;DHT22;26324;52.040;11.528;2023-04-16T01:31:56;9.80;89.60
40622;DHT22;26324;52.040;11.528;2023-04-16T01:34:40;9.70;89.30
40622;DHT22;26324;52.040;11.528;2023-04-16T01:37:11;9.70;89.40
40622;DHT22;26324;52.040;11.528;2023-04-16T01:39:38;9.70;89.40
40622;DHT22;26324;52.040;11.528;2023-04-16T01:42:06;9.70;89.40
40622;DHT22;26324;52.040;11.528;2023-04-16T01:44:33;9.70;89.50
40622;DHT22;26324;52.040;11.528;2023-04-16T01:47:01;9.60;89.50
40622;DHT22;26324;52.040;11.528;2023-04-16T01:49:28;9.70;89.60
40622;DHT22;26324;52.040;11.528;2023-04-16T01:51:55;9.60;89.70
40622;DHT22;26324;52.040;11.528;2023-04-16T01:54:23;9.60;89.40
40622;DHT22;26324;52.040;11.528;2023-04-16T01:56:50;9.60;89.50
40622;DHT22;26324;52.040;11.528;2023-04-16T01:59:17;9.60;89.50
40622;DHT22;26324;52.040;11.528;2023-04-16T02:01:46;9.60;89.40
40622;DHT22;26324;52.040;11.528;2023-04-16T02:04:13;9.50;89.40
40622;DHT22;26324;52.040;11.528;2023-04-16T02:06:40;9.60;89.50
40622;DHT22;26324;52.040;11.528;2023-04-16T02:09:08;9.50;89.50
40622;DHT22;26324;52.040;11.528;2023-04-16T02:11:36;9.50;89.70
40622;DHT22;26324;52.040;11.528;2023-04-16T02:17:25;9.50;89.80
40622;DHT22;26324;52.040;11.528;2023-04-16T02:20:04;9.40;89.50
40622;DHT22;26324;52.040;11.528;2023-04-16T02:22:37;9.40;89.40
40622;DHT22;26324;52.040;11.528;2023-04-16T02:25:04;9.40;89.50
40622;DHT22;26324;52.040;11.528;2023-04-16T02:27:32;9.30;89.60
40622;DHT22;26324;52.040;11.528;2023-04-16T02:30:12;9.30;89.60
40622;DHT22;26324;52.040;11.528;2023-04-16T02:32:40;9.30;89.60
40622;DHT22;26324;52.040;11.528;2023-04-16T02:35:08;9.30;89.80
40622;DHT22;26324;52.040;11.528;2023-04-16T02:37:35;9.30;89.80
40622;DHT22;26324;52.040;11.528;2023-04-16T02:40:03;9.30;89.70
40622;DHT22;26324;52.040;11.528;2023-04-16T02:42:30;9.30;89.60
40622;DHT22;26324;52.040;11.528;2023-04-16T02:44:57;9.20;89.50
40622;DHT22;26324;52.040;11.528;2023-04-16T02:47:24;9.30;89.60
40622;DHT22;26324;52.040;11.528;2023-04-16T02:49:52;9.30;89.50
40622;DHT22;26324;52.040;11.528;2023-04-16T02:52:19;9.20;89.60
40622;DHT22;26324;52.040;11.528;2023-04-16T02:54:46;9.30;89.50
40622;DHT22;26324;52.040;11.528;2023-04-16T02:57:13;9.30;89.40
40622;DHT22;26324;52.040;11.528;2023-04-16T02:59:41;9.20;89.60
40622;DHT22;26324;52.040;11.528;2023-04-16T03:02:08;9.20;89.60
40622;DHT22;26324;52.040;11.528;2023-04-16T03:04:35;9.10;89.50
40622;DHT22;26324;52.040;11.528;2023-04-16T03:07:03;9.20;89.50
40622;DHT22;26324;52.040;11.528;2023-04-16T03:09:30;9.20;89.50
40622;DHT22;26324;52.040;11.528;2023-04-16T03:11:58;9.10;89.40
40622;DHT22;26324;52.040;11.528;2023-04-16T03:14:25;9.10;89.50
40622;DHT22;26324;52.040;11.528;2023-04-16T03:16:57;9.10;89.50
40622;DHT22;26324;52.040;11.528;2023-04-16T03:19:24;9.20;89.40
40622;DHT22;26324;52.040;11.528;2023-04-16T03:21:51;9.20;89.40
40622;DHT22;26324;52.040;11.528;2023-04-16T03:24:19;9.10;89.60
40622;DHT22;26324;52.040;11.528;2023-04-16T03:26:48;9.10;89.50
40622;DHT22;26324;52.040;11.528;2023-04-16T03:29:15;9.10;89.30
40622;DHT22;26324;52.040;11.528;2023-04-16T03:31:43;9.10;89.50
40622;DHT22;26324;52.040;11.528;2023-04-16T03:34:10;9.10;89.50
40622;DHT22;26324;52.040;11.528;2023-04-16T03:36:39;9.10;89.30
40622;DHT22;26324;52.040;11.528;2023-04-16T03:39:06;9.10;89.50
40622;DHT22;26324;52.040;11.528;2023-04-16T03:41:35;9.00;89.50
40622;DHT22;26324;52.040;11.528;2023-04-16T03:44:03;9.00;89.30
40622;DHT22;26324;52.040;11.528;2023-04-16T03:46:32;9.10;89.30
40622;DHT22;26324;52.040;11.528;2023-04-16T03:48:59;9.10;89.40
40622;DHT22;26324;52.040;11.528;2023-04-16T03:51:27;9.10;89.40
40622;DHT22;26324;52.040;11.528;2023-04-16T03:53:55;9.10;89.40
40622;DHT22;26324;52.040;11.528;2023-04-16T03:56:24;9.10;89.40
40622;DHT22;26324;52.040;11.528;2023-04-16T03:58:52;9.10;89.50
40622;DHT22;26324;52.040;11.528;2023-04-16T04:01:19;9.10;89.60
40622;DHT22;26324;52.040;11.528;2023-04-16T04:03:46;9.10;89.50
40622;DHT22;26324;52.040;11.528;2023-04-16T04:06:15;9.10;89.50
40622;DHT22;26324;52.040;11.528;2023-04-16T04:08:42;9.10;89.60
40622;DHT22;26324;52.040;11.528;2023-04-16T04:11:09;9.10;89.60
40622;DHT22;26324;52.040;11.528;2023-04-16T04:13:38;9.10;89.50
40622;DHT22;26324;52.040;11.528;2023-04-16T04:16:06;9.10;89.70
40622;DHT22;26324;52.040;11.528;2023-04-16T04:18:33;9.00;89.80
40622;DHT22;26324;52.040;11.528;2023-04-16T04:21:05;9.10;89.90
40622;DHT22;26324;52.040;11.528;2023-04-16T04:23:34;9.00;89.80
40622;DHT22;26324;52.040;11.528;2023-04-16T04:26:01;9.00;90.00
40622;DHT22;26324;52.040;11.528;2023-04-16T04:28:32;9.10;89.70
40622;DHT22;26324;52.040;11.528;2023-04-16T04:31:00;9.10;89.80
40622;DHT22;26324;52.040;11.528;2023-04-16T04:33:29;9.10;89.80
40622;DHT22;26324;52.040;11.528;2023-04-16T04:35:57;9.10;89.60
40622;DHT22;26324;52.040;11.528;2023-04-16T04:38:25;9.10;89.50
40622;DHT22;26324;52.040;11.528;2023-04-16T04:40:53;9.10;89.70
40622;DHT22;26324;52.040;11.528;2023-04-16T04:43:22;9.10;89.60
40622;DHT22;26324;52.040;11.528;2023-04-16T04:45:50;9.00;89.90
40622;DHT22;26324;52.040;11.528;2023-04-16T04:48:17;9.00;89.90
40622;DHT22;26324;52.040;11.528;2023-04-16T04:50:46;9.00;89.80
40622;DHT22;26324;52.040;11.528;2023-04-16T04:53:15;9.00;89.60
40622;DHT22;26324;52.040;11.528;2023-04-16T04:55:42;9.00;89.70
40622;DHT22;26324;52.040;11.528;2023-04-16T04:58:10;9.00;89.70
40622;DHT22;26324;52.040;11.528;2023-04-16T05:00:39;9.00;89.50
40622;DHT22;26324;52.040;11.528;2023-04-16T05:03:09;9.00;89.70
40622;DHT22;26324;52.040;11.528;2023-04-16T05:05:40;8.90;89.60
40622;DHT22;26324;52.040;11.528;2023-04-16T05:08:08;8.90;89.70
40622;DHT22;26324;52.040;11.528;2023-04-16T05:10:35;8.90;89.70
40622;DHT22;26324;52.040;11.528;2023-04-16T05:13:03;9.00;89.60
40622;DHT22;26324;52.040;11.528;2023-04-16T05:15:30;8.90;89.70
40622;DHT22;26324;52.040;11.528;2023-04-16T05:17:58;8.90;89.80
40622;DHT22;26324;52.040;11.528;2023-04-16T05:20:27;9.00;89.70
40622;DHT22;26324;52.040;11.528;2023-04-16T05:22:55;8.90;89.70
40622;DHT22;26324;52.040;11.528;2023-04-16T05:25:28;8.80;89.60
40622;DHT22;26324;52.040;11.528;2023-04-16T05:27:56;8.80;89.70
40622;DHT22;26324;52.040;11.528;2023-04-16T05:30:23;8.90;89.80
40622;DHT22;26324;52.040;11.528;2023-04-16T05:32:51;8.90;89.60
40622;DHT22;26324;52.040;11.528;2023-04-16T05:35:18;9.00;89.60
40622;DHT22;26324;52.040;11.528;2023-04-16T05:37:46;9.00;89.50
40622;DHT22;26324;52.040;11.528;2023-04-16T05:40:14;8.90;89.70
40622;DHT22;26324;52.040;11.528;2023-04-16T05:42:41;8.90;89.70
40622;DHT22;26324;52.040;11.528;2023-04-16T05:45:09;8.90;89.60
40622;DHT22;26324;52.040;11.528;2023-04-16T05:47:37;9.00;89.70
40622;DHT22;26324;52.040;11.528;2023-04-16T05:50:09;9.00;89.60
40622;DHT22;26324;52.040;11.528;2023-04-16T05:52:37;9.00;89.70
40622;DHT22;26324;52.040;11.528;2023-04-16T05:55:05;9.00;89.70
40622;DHT22;26324;52.040;11.528;2023-04-16T05:57:33;9.00;89.80
40622;DHT22;26324;52.040;11.528;2023-04-16T06:00:00;8.90;89.80
40622;DHT22;26324;52.040;11.528;2023-04-16T06:02:38;8.90;90.00
40622;DHT22;26324;52.040;11.528;2023-04-16T06:05:06;8.90;90.10
40622;DHT22;26324;52.040;11.528;2023-04-16T06:07:33;8.90;90.00
40622;DHT22;26324;52.040;11.528;2023-04-16T06:10:01;8.80;89.80
40622;DHT22;26324;52.040;11.528;2023-04-16T06:12:28;8.90;90.10
40622;DHT22;26324;52.040;11.528;2023-04-16T06:14:56;8.90;89.60
40622;DHT22;26324;52.040;11.528;2023-04-16T06:17:23;8.80;89.70
40622;DHT22;26324;52.040;11.528;2023-04-16T06:19:51;8.90;90.00
40622;DHT22;26324;52.040;11.528;2023-04-16T06:22:18;8.90;90.00
40622;DHT22;26324;52.040;11.528;2023-04-16T06:24:46;8.90;89.80
40622;DHT22;26324;52.040;11.528;2023-04-16T06:27:14;9.00;89.70
40622;DHT22;26324;52.040;11.528;2023-04-16T06:29:41;8.90;89.60
40622;DHT22;26324;52.040;11.528;2023-04-16T06:32:09;8.90;89.90
40622;DHT22;26324;52.040;11.528;2023-04-16T06:34:37;8.80;90.00
40622;DHT22;26324;52.040;11.528;2023-04-16T06:37:05;8.80;90.10
40622;DHT22;26324;52.040;11.528;2023-04-16T06:39:36;8.80;89.70
40622;DHT22;26324;52.040;11.528;2023-04-16T06:42:04;8.80;89.90
40622;DHT22;26324;52.040;11.528;2023-04-16T06:44:31;8.90;89.90
40622;DHT22;26324;52.040;11.528;2023-04-16T06:46:59;8.90;89.90
40622;DHT22;26324;52.040;11.528;2023-04-16T06:49:26;8.90;90.00
40622;DHT22;26324;52.040;11.528;2023-04-16T06:51:56;8.90;89.80
40622;DHT22;26324;52.040;11.528;2023-04-16T06:54:23;8.90;89.80
40622;DHT22;26324;52.040;11.528;2023-04-16T06:56:50;8.80;89.80
40622;DHT22;26324;52.040;11.528;2023-04-16T06:59:18;9.00;89.90
40622;DHT22;26324;52.040;11.528;2023-04-16T07:01:45;9.00;89.80
40622;DHT22;26324;52.040;11.528;2023-04-16T07:04:14;8.90;90.00
40622;DHT22;26324;52.040;11.528;2023-04-16T07:06:41;9.00;89.90
40622;DHT22;26324;52.040;11.528;2023-04-16T07:09:08;9.00;89.90
40622;DHT22;26324;52.040;11.528;2023-04-16T07:11:36;9.00;89.90
40622;DHT22;26324;52.040;11.528;2023-04-16T07:14:04;9.10;89.90
40622;DHT22;26324;52.040;11.528;2023-04-16T07:16:31;9.10;89.70
40622;DHT22;26324;52.040;11.528;2023-04-16T07:18:58;9.10;89.70
40622;DHT22;26324;52.040;11.528;2023-04-16T07:21:26;9.10;90.00
40622;DHT22;26324;52.040;11.528;2023-04-16T07:23:53;9.10;90.10
40622;DHT22;26324;52.040;11.528;2023-04-16T07:26:21;9.10;90.10
40622;DHT22;26324;52.040;11.528;2023-04-16T07:28:48;9.20;90.00
40622;DHT22;26324;52.040;11.528;2023-04-16T07:31:15;9.40;89.90
40622;DHT22;26324;52.040;11.528;2023-04-16T07:33:43;9.40;89.30
40622;DHT22;26324;52.040;11.528;2023-04-16T07:36:10;9.30;89.10
40622;DHT22;26324;52.040;11.528;2023-04-16T07:38:38;9.40;89.30
40622;DHT22;26324;52.040;11.528;2023-04-16T07:41:05;9.40;88.90
40622;DHT22;26324;52.040;11.528;2023-04-16T07:43:33;9.50;89.00
40622;DHT22;26324;52.040;11.528;2023-04-16T07:46:00;9.50;89.20
40622;DHT22;26324;52.040;11.528;2023-04-16T07:48:29;9.50;89.10
40622;DHT22;26324;52.040;11.528;2023-04-16T07:50:57;9.50;89.00
40622;DHT22;26324;52.040;11.528;2023-04-16T07:53:24;9.50;88.70
40622;DHT22;26324;52.040;11.528;2023-04-16T07:55:52;9.50;88.90
40622;DHT22;26324;52.040;11.528;2023-04-16T07:58:19;9.50;88.90
40622;DHT22;26324;52.040;11.528;2023-04-16T08:00:47;9.50;88.90
40622;DHT22;26324;52.040;11.528;2023-04-16T08:03:17;9.50;89.10
40622;DHT22;26324;52.040;11.528;2023-04-16T08:05:44;9.50;89.40
40622;DHT22;26324;52.040;11.528;2023-04-16T08:08:12;9.50;88.90
40622;DHT22;26324;52.040;11.528;2023-04-16T08:10:53;9.60;89.00
40622;DHT22;26324;52.040;11.528;2023-04-16T08:13:35;9.60;88.80
40622;DHT22;26324;52.040;11.528;2023-04-16T08:16:17;9.60;88.60
40622;DHT22;26324;52.040;11.528;2023-04-16T08:18:58;9.60;88.60
40622;DHT22;26324;52.040;11.528;2023-04-16T08:21:27;9.60;88.60
40622;DHT22;26324;52.040;11.528;2023-04-16T08:23:57;9.60;88.80
40622;DHT22;26324;52.040;11.528;2023-04-16T08:26:25;9.60;88.60
40622;DHT22;26324;52.040;11.528;2023-04-16T08:28:55;9.60;88.50
40622;DHT22;26324;52.040;11.528;2023-04-16T08:31:24;9.60;88.70
40622;DHT22;26324;52.040;11.528;2023-04-16T08:33:53;9.70;88.30
40622;DHT22;26324;52.040;11.528;2023-04-16T08:36:34;9.70;88.40
40622;DHT22;26324;52.040;11.528;2023-04-16T08:39:10;9.70;88.30
40622;DHT22;26324;52.040;11.528;2023-04-16T08:41:53;9.70;88.20
40622;DHT22;26324;52.040;11.528;2023-04-16T08:44:26;9.60;88.60
40622;DHT22;26324;52.040;11.528;2023-04-16T08:46:54;9.60;88.10
40622;DHT22;26324;52.040;11.528;2023-04-16T08:49:25;9.60;88.60
40622;DHT22;26324;52.040;11.528;2023-04-16T08:51:54;9.60;89.00
40622;DHT22;26324;52.040;11.528;2023-04-16T08:55:05;9.70;89.10
40622;DHT22;26324;52.040;11.528;2023-04-16T08:57:38;9.80;88.80
40622;DHT22;26324;52.040;11.528;2023-04-16T09:00:11;9.90;88.90
40622;DHT22;26324;52.040;11.528;2023-04-16T09:02:39;10.00;88.70
40622;DHT22;26324;52.040;11.528;2023-04-16T09:05:09;10.00;89.00
40622;DHT22;26324;52.040;11.528;2023-04-16T09:07:37;10.00;88.60
40622;DHT22;26324;52.040;11.528;2023-04-16T09:10:06;10.10;88.20
40622;DHT22;26324;52.040;11.528;2023-04-16T09:12:34;10.00;88.30
40622;DHT22;26324;52.040;11.528;2023-04-16T09:15:02;10.00;88.10
40622;DHT22;26324;52.040;11.528;2023-04-16T09:17:31;10.00;88.10
40622;DHT22;26324;52.040;11.528;2023-04-16T09:19:58;10.10;88.20
40622;DHT22;26324;52.040;11.528;2023-04-16T09:22:25;10.10;88.20
40622;DHT22;26324;52.040;11.528;2023-04-16T09:24:53;10.10;88.10
40622;DHT22;26324;52.040;11.528;2023-04-16T09:27:20;10.10;88.30
40622;DHT22;26324;52.040;11.528;2023-04-16T09:29:52;10.10;88.20
40622;DHT22;26324;52.040;11.528;2023-04-16T09:32:24;10.10;88.20
40622;DHT22;26324;52.040;11.528;2023-04-16T09:35:00;10.10;88.20
40622;DHT22;26324;52.040;11.528;2023-04-16T09:37:29;10.20;88.00
40622;DHT22;26324;52.040;11.528;2023-04-16T09:40:03;10.20;88.30
40622;DHT22;26324;52.040;11.528;2023-04-16T09:42:33;10.40;88.30
40622;DHT22;26324;52.040;11.528;2023-04-16T09:45:05;10.50;87.80
40622;DHT22;26324;52.040;11.528;2023-04-16T09:47:40;10.50;87.20
40622;DHT22;26324;52.040;11.528;2023-04-16T09:50:09;10.50;87.80
40622;DHT22;26324;52.040;11.528;2023-04-16T09:52:39;10.50;87.00
40622;DHT22;26324;52.040;11.528;2023-04-16T09:55:09;10.50;87.10
40622;DHT22;26324;52.040;11.528;2023-04-16T09:57:37;10.50;86.90
40622;DHT22;26324;52.040;11.528;2023-04-16T10:00:06;10.40;86.70
40622;DHT22;26324;52.040;11.528;2023-04-16T10:02:35;10.50;87.00
40622;DHT22;26324;52.040;11.528;2023-04-16T10:05:07;10.50;87.60
40622;DHT22;26324;52.040;11.528;2023-04-16T10:07:40;10.50;87.30
40622;DHT22;26324;52.040;11.528;2023-04-16T10:10:08;10.50;87.00
40622;DHT22;26324;52.040;11.528;2023-04-16T10:12:35;10.50;87.00
40622;DHT22;26324;52.040;11.528;2023-04-16T10:15:07;10.50;87.30
40622;DHT22;26324;52.040;11.528;2023-04-16T10:17:34;10.40;86.80
40622;DHT22;26324;52.040;11.528;2023-04-16T10:20:03;10.50;86.90
40622;DHT22;26324;52.040;11.528;2023-04-16T10:22:32;10.50;87.10
40622;DHT22;26324;52.040;11.528;2023-04-16T10:24:59;10.50;87.50
40622;DHT22;26324;52.040;11.528;2023-04-16T10:27:27;10.50;87.60
40622;DHT22;26324;52.040;11.528;2023-04-16T10:29:55;10.50;87.70
40622;DHT22;26324;52.040;11.528;2023-04-16T10:32:24;10.60;86.90
40622;DHT22;26324;52.040;11.528;2023-04-16T10:34:54;10.60;87.00
40622;DHT22;26324;52.040;11.528;2023-04-16T10:37:29;10.60;87.00
40622;DHT22;26324;52.040;11.528;2023-04-16T10:39:57;10.60;87.20
40622;DHT22;26324;52.040;11.528;2023-04-16T10:42:25;10.60;86.60
40622;DHT22;26324;52.040;11.528;2023-04-16T10:44:53;10.50;87.00
40622;DHT22;26324;52.040;11.528;2023-04-16T10:47:23;10.60;87.30
40622;DHT22;26324;52.040;11.528;2023-04-16T10:49:52;10.70;87.30
40622;DHT22;26324;52.040;11.528;2023-04-16T10:52:19;10.80;86.50
40622;DHT22;26324;52.040;11.528;2023-04-16T10:54:48;10.80;86.20
40622;DHT22;26324;52.040;11.528;2023-04-16T10:57:19;10.90;86.50
40622;DHT22;26324;52.040;11.528;2023-04-16T10:59:47;10.90;86.30
40622;DHT22;26324;52.040;11.528;2023-04-16T11:02:16;11.00;85.90
40622;DHT22;26324;52.040;11.528;2023-04-16T11:04:45;11.10;86.20
40622;DHT22;26324;52.040;11.528;2023-04-16T11:07:16;11.10;85.80
40622;DHT22;26324;52.040;11.528;2023-04-16T11:12:36;11.20;85.80
40622;DHT22;26324;52.040;11.528;2023-04-16T11:15:09;11.20;85.40
40622;DHT22;26324;52.040;11.528;2023-04-16T11:17:37;11.20;85.30
40622;DHT22;26324;52.040;11.528;2023-04-16T11:20:09;11.20;85.20
40622;DHT22;26324;52.040;11.528;2023-04-16T11:22:47;11.10;85.70
40622;DHT22;26324;52.040;11.528;2023-04-16T11:25:22;11.20;85.80
40622;DHT22;26324;52.040;11.528;2023-04-16T11:27:50;11.20;85.30
40622;DHT22;26324;52.040;11.528;2023-04-16T11:30:26;11.20;85.40
40622;DHT22;26324;52.040;11.528;2023-04-16T11:32:54;11.30;85.40
40622;DHT22;26324;52.040;11.528;2023-04-16T11:35:21;11.40;84.90
40622;DHT22;26324;52.040;11.528;2023-04-16T11:37:49;11.50;85.30
40622;DHT22;26324;52.040;11.528;2023-04-16T11:40:16;11.60;85.20
40622;DHT22;26324;52.040;11.528;2023-04-16T11:42:43;11.60;84.70
40622;DHT22;26324;52.040;11.528;2023-04-16T11:45:11;11.60;84.40
40622;DHT22;26324;52.040;11.528;2023-04-16T11:47:46;11.50;84.10
40622;DHT22;26324;52.040;11.528;2023-04-16T11:50:25;11.40;84.10
40622;DHT22;26324;52.040;11.528;2023-04-16T11:52:56;11.30;84.40
40622;DHT22;26324;52.040;11.528;2023-04-16T11:55:23;11.10;84.70
40622;DHT22;26324;52.040;11.528;2023-04-16T11:57:51;11.00;85.30
40622;DHT22;26324;52.040;11.528;2023-04-16T12:00:19;10.90;85.50
40622;DHT22;26324;52.040;11.528;2023-04-16T12:02:52;10.80;85.70
40622;DHT22;26324;52.040;11.528;2023-04-16T12:05:39;10.70;86.10
40622;DHT22;26324;52.040;11.528;2023-04-16T12:08:08;10.60;86.30
40622;DHT22;26324;52.040;11.528;2023-04-16T12:10:36;10.60;86.40
40622;DHT22;26324;52.040;11.528;2023-04-16T12:13:15;10.60;86.40
40622;DHT22;26324;52.040;11.528;2023-04-16T12:15:47;10.50;86.40
40622;DHT22;26324;52.040;11.528;2023-04-16T12:18:15;10.60;86.60
40622;DHT22;26324;52.040;11.528;2023-04-16T12:20:44;10.50;86.50
40622;DHT22;26324;52.040;11.528;2023-04-16T12:23:29;10.50;86.60
40622;DHT22;26324;52.040;11.528;2023-04-16T12:25:57;10.50;86.60
40622;DHT22;26324;52.040;11.528;2023-04-16T12:28:34;10.50;86.60
40622;DHT22;26324;52.040;11.528;2023-04-16T12:31:02;10.60;86.70
40622;DHT22;26324;52.040;11.528;2023-04-16T12:33:32;10.60;86.70
40622;DHT22;26324;52.040;11.528;2023-04-16T12:35:59;10.60;86.60
40622;DHT22;26324;52.040;11.528;2023-04-16T12:38:28;10.70;86.90
40622;DHT22;26324;52.040;11.528;2023-04-16T12:40:55;10.80;86.40
40622;DHT22;26324;52.040;11.528;2023-04-16T12:43:24;10.80;86.50
40622;DHT22;26324;52.040;11.528;2023-04-16T12:45:52;11.00;86.60
40622;DHT22;26324;52.040;11.528;2023-04-16T12:48:19;11.10;86.10
40622;DHT22;26324;52.040;11.528;2023-04-16T12:50:46;11.20;85.80
40622;DHT22;26324;52.040;11.528;2023-04-16T12:53:14;11.30;85.50
40622;DHT22;26324;52.040;11.528;2023-04-16T12:55:41;11.40;84.90
40622;DHT22;26324;52.040;11.528;2023-04-16T12:58:08;11.40;84.70
40622;DHT22;26324;52.040;11.528;2023-04-16T13:00:38;11.40;84.90
40622;DHT22;26324;52.040;11.528;2023-04-16T13:03:06;11.40;84.50
40622;DHT22;26324;52.040;11.528;2023-04-16T13:05:34;11.40;84.40
40622;DHT22;26324;52.040;11.528;2023-04-16T13:08:01;11.30;84.60
40622;DHT22;26324;52.040;11.528;2023-04-16T13:10:29;11.30;84.60
40622;DHT22;26324;52.040;11.528;2023-04-16T13:12:56;11.30;84.90
40622;DHT22;26324;52.040;11.528;2023-04-16T13:15:23;11.20;85.40
40622;DHT22;26324;52.040;11.528;2023-04-16T13:17:50;11.20;85.40
40622;DHT22;26324;52.040;11.528;2023-04-16T13:20:18;11.10;85.70
40622;DHT22;26324;52.040;11.528;2023-04-16T13:22:45;11.10;85.90
40622;DHT22;26324;52.040;11.528;2023-04-16T13:25:12;11.10;86.00
40622;DHT22;26324;52.040;11.528;2023-04-16T13:27:39;11.20;86.10
40622;DHT22;26324;52.040;11.528;2023-04-16T13:30:07;11.20;85.90
40622;DHT22;26324;52.040;11.528;2023-04-16T13:33:02;11.10;86.20
40622;DHT22;26324;52.040;11.528;2023-04-16T13:35:30;11.00;86.60
40622;DHT22;26324;52.040;11.528;2023-04-16T13:37:57;11.00;86.50
40622;DHT22;26324;52.040;11.528;2023-04-16T13:40:24;11.00;86.70
40622;DHT22;26324;52.040;11.528;2023-04-16T13:42:53;11.00;86.90
40622;DHT22;26324;52.040;11.528;2023-04-16T13:45:20;11.00;86.80
40622;DHT22;26324;52.040;11.528;2023-04-16T13:47:47;11.00;86.40
40622;DHT22;26324;52.040;11.528;2023-04-16T13:50:15;11.00;86.70
40622;DHT22;26324;52.040;11.528;2023-04-16T13:52:43;11.10;86.80
40622;DHT22;26324;52.040;11.528;2023-04-16T13:55:10;11.10;86.80
40622;DHT22;26324;52.040;11.528;2023-04-16T13:57:40;11.20;86.40
40622;DHT22;26324;52.040;11.528;2023-04-16T14:00:07;11.20;86.50
40622;DHT22;26324;52.040;11.528;2023-04-16T14:02:41;11.30;86.40
40622;DHT22;26324;52.040;11.528;2023-04-16T14:05:09;11.40;86.20
40622;DHT22;26324;52.040;11.528;2023-04-16T14:07:36;11.50;86.30
40622;DHT22;26324;52.040;11.528;2023-04-16T14:10:05;11.50;85.40
40622;DHT22;26324;52.040;11.528;2023-04-16T14:12:33;11.50;85.50
40622;DHT22;26324;52.040;11.528;2023-04-16T14:15:01;11.60;85.00
40622;DHT22;26324;52.040;11.528;2023-04-16T14:17:30;11.60;85.30
40622;DHT22;26324;52.040;11.528;2023-04-16T14:19:58;11.50;85.00
40622;DHT22;26324;52.040;11.528;2023-04-16T14:22:25;11.50;85.00
40622;DHT22;26324;52.040;11.528;2023-04-16T14:24:52;11.40;85.40
40622;DHT22;26324;52.040;11.528;2023-04-16T14:27:19;11.40;85.40
40622;DHT22;26324;52.040;11.528;2023-04-16T14:29:47;11.40;85.60
40622;DHT22;26324;52.040;11.528;2023-04-16T14:32:14;11.50;85.90
40622;DHT22;26324;52.040;11.528;2023-04-16T14:34:41;11.60;85.70
40622;DHT22;26324;52.040;11.528;2023-04-16T14:37:09;11.70;86.00
40622;DHT22;26324;52.040;11.528;2023-04-16T14:39:36;11.90;84.80
40622;DHT22;26324;52.040;11.528;2023-04-16T14:42:05;12.00;84.30
40622;DHT22;26324;52.040;11.528;2023-04-16T14:44:32;12.00;83.50
40622;DHT22;26324;52.040;11.528;2023-04-16T14:46:59;12.00;83.20
40622;DHT22;26324;52.040;11.528;2023-04-16T14:49:27;11.80;82.30
40622;DHT22;26324;52.040;11.528;2023-04-16T14:51:54;11.70;82.50
40622;DHT22;26324;52.040;11.528;2023-04-16T14:54:23;11.60;83.20
40622;DHT22;26324;52.040;11.528;2023-04-16T14:56:52;11.40;83.40
40622;DHT22;26324;52.040;11.528;2023-04-16T14:59:19;11.50;84.20
40622;DHT22;26324;52.040;11.528;2023-04-16T15:01:47;11.50;84.70
40622;DHT22;26324;52.040;11.528;2023-04-16T15:04:14;11.70;84.30
40622;DHT22;26324;52.040;11.528;2023-04-16T15:06:44;12.00;83.50
40622;DHT22;26324;52.040;11.528;2023-04-16T15:09:12;12.30;82.70
40622;DHT22;26324;52.040;11.528;2023-04-16T15:11:54;12.60;81.50
40622;DHT22;26324;52.040;11.528;2023-04-16T15:14:22;12.70;79.70
40622;DHT22;26324;52.040;11.528;2023-04-16T15:16:49;12.80;78.20
40622;DHT22;26324;52.040;11.528;2023-04-16T15:19:17;12.80;77.30
40622;DHT22;26324;52.040;11.528;2023-04-16T15:21:45;12.80;77.10
40622;DHT22;26324;52.040;11.528;2023-04-16T15:24:15;12.70;78.20
40622;DHT22;26324;52.040;11.528;2023-04-16T15:26:42;12.70;78.40
40622;DHT22;26324;52.040;11.528;2023-04-16T15:29:10;12.70;79.00
40622;DHT22;26324;52.040;11.528;2023-04-16T15:31:37;12.60;79.60
40622;DHT22;26324;52.040;11.528;2023-04-16T15:34:05;12.70;79.40
40622;DHT22;26324;52.040;11.528;2023-04-16T15:36:33;12.80;79.00
40622;DHT22;26324;52.040;11.528;2023-04-16T15:39:00;12.70;78.70
40622;DHT22;26324;52.040;11.528;2023-04-16T15:41:28;12.60;78.40